Time;durP1;ratioP1;P1;durP2;ratioP2;P2;SDS_P1;SDS_P2;PMS_P1;PMS_P2;Temp;Humidity;BMP_temperature;BMP_pressure;BME280_temperature;BME280_humidity;BME280_pressure;Samples;Min_cycle;Max_cycle;Signal;HPM_P1;HPM_P2
2021/08/10 00:00:08;;;;;;;11.22;5.03;;;;;;;15.94;88.10;98460.38;1736097;81;20835;-80
2021/08/10 00:02:36;;;;;;;6.95;4.95;;;;;;;15.89;88.20;98453.08;1736326;82;21340;-80
2021/08/10 00:05:07;;;;;;;5.17;3.90;;;;;;;15.80;89.39;98437.14;1736224;82;20847;-80
2021/08/10 00:07:33;;;;;;;6.75;4.67;;;;;;;15.82;87.95;98425.38;1736477;82;20962;-79
2021/08/10 00:09:59;;;;;;;7.58;5.10;;;;;;;15.76;88.29;98416.46;1736101;82;21320;-80
2021/08/10 00:12:25;;;;;;;7.10;4.47;;;;;;;15.70;88.78;98426.42;1736377;81;20917;-79
2021/08/10 00:14:51;;;;;;;9.03;4.42;;;;;;;15.73;87.46;98425.83;1736144;82;20942;-79
2021/08/10 00:17:17;;;;;;;9.05;4.83;;;;;;;15.62;89.36;98420.30;1736580;82;20891;-73
2021/08/10 00:19:43;;;;;;;6.05;4.58;;;;;;;15.63;87.45;98409.62;1736152;82;20848;-73
2021/08/10 00:22:09;;;;;;;7.90;5.20;;;;;;;15.58;87.00;98407.78;1736447;81;20884;-79
2021/08/10 00:24:35;;;;;;;6.67;4.70;;;;;;;15.51;89.05;98408.17;1736155;82;20834;-79
2021/08/10 00:27:01;;;;;;;9.05;5.35;;;;;;;15.50;88.88;98402.46;1736521;82;20934;-73
2021/08/10 00:29:28;;;;;;;6.85;4.97;;;;;;;15.50;89.77;98401.09;1715054;82;20923;-73
2021/08/10 00:31:54;;;;;;;9.03;5.10;;;;;;;15.49;88.90;98408.23;1736378;82;20951;-73
2021/08/10 00:34:20;;;;;;;7.85;5.22;;;;;;;15.47;88.17;98415.92;1726787;83;22061;-73
2021/08/10 00:36:46;;;;;;;6.28;5.30;;;;;;;15.45;90.12;98416.76;1726938;83;20890;-74
2021/08/10 00:39:12;;;;;;;11.03;5.85;;;;;;;15.53;89.98;98413.33;1726615;83;20898;-73
2021/08/10 00:41:38;;;;;;;6.58;4.53;;;;;;;15.59;90.26;98412.12;1727089;83;20918;-80
2021/08/10 00:44:04;;;;;;;12.90;4.83;;;;;;;15.63;89.54;98417.25;1711814;82;21027;-79
2021/08/10 00:46:30;;;;;;;8.13;5.75;;;;;;;15.60;88.99;98424.67;1709383;83;21008;-79
2021/08/10 00:48:56;;;;;;;10.80;5.30;;;;;;;15.57;90.59;98423.11;1708649;83;21502;-80
2021/08/10 00:51:22;;;;;;;13.78;6.58;;;;;;;15.57;89.72;98419.82;1709037;83;20955;-79
2021/08/10 00:53:47;;;;;;;8.13;4.50;;;;;;;15.59;90.45;98426.34;1708856;83;20880;-80
2021/08/10 00:56:13;;;;;;;10.10;4.67;;;;;;;15.61;90.79;98421.41;1708991;84;20869;-80
2021/08/10 00:58:39;;;;;;;6.75;4.47;;;;;;;15.63;90.67;98421.91;1666456;84;21241;-80
2021/08/10 01:01:05;;;;;;;6.67;4.40;;;;;;;15.66;89.85;98425.42;1708760;84;20966;-72
2021/08/10 01:03:31;;;;;;;12.45;5.58;;;;;;;15.63;91.02;98410.98;1709124;82;20872;-73
2021/08/10 01:05:57;;;;;;;13.78;4.87;;;;;;;15.63;91.40;98407.70;1709101;83;20852;-73
2021/08/10 01:08:32;;;;;;;8.58;4.62;;;;;;;15.68;91.49;98414.99;1708903;84;20821;-79
2021/08/10 01:11:18;;;;;;;6.25;4.08;;;;;;;15.71;91.51;98415.74;1708996;84;21416;-80
2021/08/10 01:14:06;;;;;;;8.50;5.60;;;;;;;15.74;91.21;98412.42;1708987;83;20929;-73
2021/08/10 01:16:41;;;;;;;;;;;;;;;15.74;90.55;98410.50;1711579;83;20976;-79
2021/08/10 01:19:33;;;;;;;7.95;5.30;;;;;;;15.77;90.66;98411.25;1708843;83;20129;-73
2021/08/10 01:21:59;;;;;;;10.60;5.92;;;;;;;15.82;90.51;98418.55;1709126;83;21352;-79
2021/08/10 01:24:30;;;;;;;7.45;5.75;;;;;;;15.79;91.76;98409.02;1708799;83;21187;-72
2021/08/10 01:27:42;;;;;;;7.85;5.30;;;;;;;15.83;91.02;98414.70;1708752;83;21031;-73
2021/08/10 01:30:13;;;;;;;6.65;4.50;;;;;;;15.82;90.79;98411.72;1708832;83;20980;-79
2021/08/10 01:32:41;;;;;;;6.90;4.80;;;;;;;15.85;90.26;98419.85;1715634;82;21054;-73
2021/08/10 01:35:07;;;;;;;6.57;3.83;;;;;;;15.82;89.48;98418.55;1750377;82;20942;-79
2021/08/10 01:37:33;;;;;;;8.63;3.70;;;;;;;15.79;89.31;98418.58;1737430;82;21104;-80
2021/08/10 01:40:06;;;;;;;5.97;4.25;;;;;;;15.78;89.09;98421.62;1736070;82;20961;-73
2021/08/10 01:42:32;;;;;;;9.15;4.30;;;;;;;15.76;89.22;98423.85;1715565;82;21034;-80
2021/08/10 01:45:00;;;;;;;7.05;4.55;;;;;;;15.74;89.91;98418.70;1736403;82;20911;-73
2021/08/10 01:47:27;;;;;;;8.63;5.03;;;;;;;15.74;89.31;98420.63;1736475;81;21068;-78
2021/08/10 01:49:53;;;;;;;8.50;4.03;;;;;;;15.76;88.61;98423.30;1736215;82;21241;-73
2021/08/10 01:52:21;;;;;;;10.68;4.83;;;;;;;15.62;90.40;98421.66;1736312;82;21004;-77
2021/08/10 01:54:47;;;;;;;9.20;4.47;;;;;;;15.56;89.87;98418.20;1736313;82;20919;-80
2021/08/10 01:57:13;;;;;;;5.25;4.17;;;;;;;15.49;90.03;98421.89;1736568;82;20984;-81
2021/08/10 01:59:39;;;;;;;6.33;4.53;;;;;;;15.46;88.80;98419.18;1736374;82;21009;-73
2021/08/10 02:02:07;;;;;;;5.53;3.65;;;;;;;15.44;88.83;98421.41;1736456;82;21334;-80
2021/08/10 02:04:33;;;;;;;6.25;4.42;;;;;;;15.41;90.45;98419.30;1735657;82;21368;-80
2021/08/10 02:06:59;;;;;;;5.72;3.75;;;;;;;15.40;89.24;98419.05;1736657;81;21018;-80
2021/08/10 02:09:25;;;;;;;6.37;3.98;;;;;;;15.37;90.03;98420.99;1736253;82;20955;-74
2021/08/10 02:11:52;;;;;;;8.93;4.60;;;;;;;15.43;90.07;98420.35;1736483;81;21548;-80
2021/08/10 02:14:22;;;;;;;8.23;4.30;;;;;;;15.44;90.66;98415.95;1736142;82;21318;-80
2021/08/10 02:16:46;;;;;;;10.00;4.25;;;;;;;15.44;91.56;98409.13;1736534;82;21395;-80
2021/08/10 02:19:12;;;;;;;11.57;4.03;;;;;;;15.46;90.87;98404.72;1736338;82;20847;-73
2021/08/10 02:21:43;;;;;;;7.40;3.92;;;;;;;15.47;91.16;98414.56;1736620;81;20938;-80
2021/08/10 02:24:13;;;;;;;13.88;4.10;;;;;;;15.46;90.31;98407.45;1736200;82;20955;-80
2021/08/10 02:26:46;;;;;;;10.10;4.85;;;;;;;15.38;90.46;98406.78;1736222;82;21301;-79
2021/08/10 02:29:12;;;;;;;5.97;4.20;;;;;;;15.33;90.29;98409.06;1736121;82;21007;-78
2021/08/10 02:31:39;;;;;;;10.20;4.28;;;;;;;15.30;89.81;98413.77;1736419;82;20891;-80
2021/08/10 02:34:05;;;;;;;10.32;5.08;;;;;;;15.27;90.07;98415.72;1730791;82;20931;-73
2021/08/10 02:36:31;;;;;;;9.15;4.53;;;;;;;15.26;89.59;98414.11;1728639;83;20934;-80
2021/08/10 02:39:05;;;;;;;9.75;4.22;;;;;;;15.24;89.16;98423.16;1728077;83;21181;-73
2021/08/10 02:41:31;;;;;;;8.40;4.87;;;;;;;15.21;90.48;98425.94;1728315;82;20990;-80
2021/08/10 02:43:57;;;;;;;7.65;4.08;;;;;;;15.30;90.52;98420.60;1728030;83;20923;-73
2021/08/10 02:46:23;;;;;;;8.28;4.08;;;;;;;15.32;89.75;98417.00;1728458;82;20867;-80
2021/08/10 02:48:49;;;;;;;6.80;4.75;;;;;;;15.32;90.38;98423.83;1728153;83;21372;-73
2021/08/10 02:51:15;;;;;;;5.95;4.17;;;;;;;15.34;92.17;98420.23;1727953;82;21211;-80
2021/08/10 02:53:41;;;;;;;11.90;5.37;;;;;;;15.39;92.00;98413.89;1728161;83;21592;-73
2021/08/10 02:56:18;;;;;;;10.88;5.47;;;;;;;15.49;90.65;98414.50;1728104;83;20894;-74
2021/08/10 02:58:57;;;;;;;9.50;5.37;;;;;;;15.53;90.66;98416.06;1728143;82;20968;-80
2021/08/10 03:01:34;;;;;;;5.78;4.53;;;;;;;15.49;91.23;98418.59;1728583;82;21586;-73
2021/08/10 03:04:00;;;;;;;6.35;4.40;;;;;;;15.47;90.49;98415.37;1728324;83;21764;-73
2021/08/10 03:06:27;;;;;;;7.15;4.37;;;;;;;15.45;89.96;98414.02;1728465;82;20951;-73
2021/08/10 03:08:59;;;;;;;8.93;3.87;;;;;;;15.39;90.34;98413.33;1707228;83;20983;-80
2021/08/10 03:11:27;;;;;;;6.08;3.72;;;;;;;15.41;89.87;98414.39;1727772;82;20975;-72
2021/08/10 03:13:53;;;;;;;4.50;3.33;;;;;;;15.36;90.97;98404.91;1727622;82;20956;-73
2021/08/10 03:16:19;;;;;;;9.88;4.42;;;;;;;15.31;90.87;98401.74;1728478;82;21295;-80
2021/08/10 03:18:48;;;;;;;8.40;3.85;;;;;;;15.33;90.80;98405.53;1731833;82;20875;-80
2021/08/10 03:21:14;;;;;;;10.00;3.75;;;;;;;15.37;91.26;98402.44;1728070;83;20947;-73
2021/08/10 03:23:40;;;;;;;7.45;3.85;;;;;;;15.38;90.92;98396.70;1728052;83;20891;-73
2021/08/10 03:26:07;;;;;;;10.00;3.98;;;;;;;15.35;90.68;98397.84;1728181;83;20899;-79
2021/08/10 03:28:33;;;;;;;5.70;3.90;;;;;;;15.31;90.46;98393.55;1728234;83;21391;-73
2021/08/10 03:30:59;;;;;;;10.60;4.70;;;;;;;15.34;90.72;98389.39;1728050;83;20820;-80
2021/08/10 03:33:29;;;;;;;11.95;4.28;;;;;;;15.38;90.82;98376.75;1731513;82;20939;-80
2021/08/10 03:35:56;;;;;;;8.23;4.78;;;;;;;15.39;90.64;98371.56;1728023;83;21489;-80
2021/08/10 03:38:23;;;;;;;13.20;5.17;;;;;;;15.38;90.98;98368.03;1728335;82;20959;-73
2021/08/10 03:40:49;;;;;;;5.80;4.37;;;;;;;15.39;90.53;98374.30;1728086;83;21331;-73
2021/08/10 03:43:15;;;;;;;12.47;4.58;;;;;;;15.38;90.51;98372.13;1728114;83;20855;-73
2021/08/10 03:45:41;;;;;;;7.58;4.08;;;;;;;15.40;90.14;98375.35;1728221;82;21524;-80
2021/08/10 03:48:07;;;;;;;6.67;5.22;;;;;;;15.39;90.23;98371.56;1728342;83;20851;-80
2021/08/10 03:50:33;;;;;;;12.90;5.10;;;;;;;15.38;90.13;98366.66;1728148;83;20902;-73
2021/08/10 03:52:58;;;;;;;8.33;4.47;;;;;;;15.39;91.63;98365.55;1728134;82;22003;-73
2021/08/10 03:55:24;;;;;;;6.37;3.83;;;;;;;15.42;91.56;98374.48;1728558;82;20831;-73
2021/08/10 03:57:50;;;;;;;9.15;4.45;;;;;;;15.43;90.80;98376.66;1728568;82;20949;-73
2021/08/10 04:00:17;;;;;;;5.75;4.50;;;;;;;15.41;90.71;98378.89;1728267;83;20882;-73
2021/08/10 04:02:43;;;;;;;7.65;4.40;;;;;;;15.42;90.43;98385.41;1727993;83;20971;-73
2021/08/10 04:05:09;;;;;;;7.75;3.92;;;;;;;15.48;89.84;98390.23;1728149;83;21914;-81
2021/08/10 04:07:35;;;;;;;8.78;4.10;;;;;;;15.47;90.26;98398.17;1728170;82;20908;-73
2021/08/10 04:10:05;;;;;;;10.50;4.33;;;;;;;15.55;90.29;98402.09;1728238;83;20839;-80
2021/08/10 04:12:31;;;;;;;13.98;4.28;;;;;;;15.55;91.05;98397.44;1739218;82;21325;-72
2021/08/10 04:14:57;;;;;;;7.37;4.28;;;;;;;15.53;90.36;98396.38;1728148;83;21558;-72
2021/08/10 04:17:26;;;;;;;5.47;3.83;;;;;;;15.57;90.50;98394.43;1728411;83;21327;-79
2021/08/10 04:19:57;;;;;;;5.78;3.80;;;;;;;15.58;89.16;98397.41;1728551;82;21411;-80
2021/08/10 04:22:23;;;;;;;7.08;4.28;;;;;;;15.58;89.09;98400.95;1707798;83;20959;-72
2021/08/10 04:24:49;;;;;;;10.35;4.72;;;;;;;15.59;89.36;98393.56;1728143;83;20894;-72
2021/08/10 04:27:15;;;;;;;13.22;4.62;;;;;;;15.60;89.30;98389.16;1728380;83;20895;-80
2021/08/10 04:29:41;;;;;;;11.12;4.92;;;;;;;15.66;89.32;98389.91;1728438;82;22088;-73
2021/08/10 04:32:08;;;;;;;9.05;4.70;;;;;;;15.73;89.52;98390.32;1728150;82;21038;-80
2021/08/10 04:34:34;;;;;;;10.15;4.87;;;;;;;15.80;89.88;98390.14;1728262;82;21050;-80
2021/08/10 04:37:00;;;;;;;12.20;4.55;;;;;;;15.85;89.81;98381.59;1728582;82;20915;-80
2021/08/10 04:39:26;;;;;;;8.58;4.67;;;;;;;15.90;89.63;98383.68;1728301;82;20824;-80
2021/08/10 04:41:53;;;;;;;7.65;4.00;;;;;;;15.93;89.24;98388.52;1728478;82;21046;-73
2021/08/10 04:44:19;;;;;;;10.95;4.33;;;;;;;15.99;89.16;98394.70;1727973;83;20982;-80
2021/08/10 04:46:45;;;;;;;10.72;5.55;;;;;;;16.02;88.98;98395.44;1728557;83;20867;-73
2021/08/10 04:49:11;;;;;;;6.72;4.10;;;;;;;16.07;88.82;98400.25;1728209;82;21390;-80
2021/08/10 04:51:37;;;;;;;8.08;4.22;;;;;;;16.08;88.29;98398.33;1728218;83;20932;-80
2021/08/10 04:54:03;;;;;;;10.08;5.10;;;;;;;15.97;88.95;98396.91;1728143;82;21930;-80
2021/08/10 04:56:29;;;;;;;8.95;5.15;;;;;;;15.94;88.26;98387.96;1728126;83;21572;-80
2021/08/10 04:58:55;;;;;;;9.53;4.92;;;;;;;15.87;88.85;98387.56;1728211;82;21341;-72
2021/08/10 05:01:21;;;;;;;9.73;5.40;;;;;;;15.87;88.57;98388.37;1728227;82;20855;-73
2021/08/10 05:03:47;;;;;;;11.28;5.40;;;;;;;15.88;89.31;98390.54;1724761;83;20875;-73
2021/08/10 05:06:12;;;;;;;8.18;4.62;;;;;;;15.94;89.20;98393.42;1725995;83;21419;-80
2021/08/10 05:08:38;;;;;;;9.38;5.80;;;;;;;15.97;89.54;98401.81;1728173;82;20891;-73
2021/08/10 05:11:10;;;;;;;10.58;5.70;;;;;;;16.08;89.06;98406.53;1728293;83;20895;-80
2021/08/10 05:13:37;;;;;;;20.48;5.87;;;;;;;16.17;89.15;98398.41;1728186;83;21430;-74
2021/08/10 05:16:04;;;;;;;9.25;5.05;;;;;;;16.23;89.29;98402.07;1728246;83;21030;-80
2021/08/10 05:18:29;;;;;;;11.15;5.70;;;;;;;16.39;89.16;98405.84;1728450;82;21030;-81
2021/08/10 05:20:55;;;;;;;9.65;5.80;;;;;;;16.57;88.77;98414.44;1728065;82;20863;-73
2021/08/10 05:23:21;;;;;;;10.23;5.33;;;;;;;16.75;88.71;98416.78;1728554;82;20930;-81
2021/08/10 05:25:47;;;;;;;13.13;5.95;;;;;;;16.89;88.26;98422.45;1728379;83;20839;-73
2021/08/10 05:28:13;;;;;;;10.32;5.95;;;;;;;17.02;87.88;98422.72;1728375;83;20886;-80
2021/08/10 05:30:39;;;;;;;10.93;5.40;;;;;;;17.21;87.82;98426.06;1728371;83;21907;-73
2021/08/10 05:33:05;;;;;;;11.43;6.58;;;;;;;17.44;87.51;98424.10;1732542;82;20945;-81
2021/08/10 05:35:31;;;;;;;8.00;5.00;;;;;;;17.60;86.67;98421.17;1728027;82;21509;-74
2021/08/10 05:37:57;;;;;;;10.65;5.05;;;;;;;17.79;85.47;98416.06;1728134;82;20875;-73
2021/08/10 05:40:22;;;;;;;8.50;5.20;;;;;;;17.79;84.92;98415.50;1728726;82;20860;-73
2021/08/10 05:42:48;;;;;;;12.47;6.80;;;;;;;17.85;84.74;98409.29;1728317;83;21217;-80
2021/08/10 05:45:14;;;;;;;7.53;5.47;;;;;;;17.85;84.71;98414.77;1729291;82;20921;-74
2021/08/10 05:47:40;;;;;;;9.93;6.33;;;;;;;17.92;85.13;98412.38;1728890;82;20962;-74
2021/08/10 05:50:08;;;;;;;12.35;5.45;;;;;;;18.14;85.26;98420.52;1728294;83;20899;-73
2021/08/10 05:52:34;;;;;;;10.55;5.35;;;;;;;18.37;84.64;98412.95;1728342;83;21348;-73
2021/08/10 05:55:00;;;;;;;6.45;4.90;;;;;;;18.60;84.64;98419.91;1731954;82;21289;-74
2021/08/10 05:57:26;;;;;;;7.28;5.67;;;;;;;18.77;82.96;98418.33;1728426;82;20939;-81
2021/08/10 05:59:52;;;;;;;9.38;5.03;;;;;;;18.82;81.92;98422.30;1728458;82;20910;-73
2021/08/10 06:02:18;;;;;;;8.00;4.80;;;;;;;18.82;81.64;98421.73;1731629;82;21430;-80
2021/08/10 06:04:44;;;;;;;13.08;5.40;;;;;;;18.91;82.45;98427.78;1728255;83;20971;-74
2021/08/10 06:07:10;;;;;;;7.58;4.70;;;;;;;19.12;82.09;98420.47;1728492;82;22033;-80
2021/08/10 06:09:35;;;;;;;8.50;4.62;;;;;;;19.28;80.92;98423.52;1728425;83;20863;-80
2021/08/10 06:12:02;;;;;;;9.80;4.72;;;;;;;19.31;80.11;98422.31;1728213;82;21596;-74
2021/08/10 06:14:28;;;;;;;13.20;5.45;;;;;;;19.38;79.99;98430.03;1728235;82;21336;-81
2021/08/10 06:16:54;;;;;;;8.60;5.78;;;;;;;19.50;79.74;98436.23;1728172;82;20963;-74
2021/08/10 06:19:20;;;;;;;9.30;5.40;;;;;;;19.59;80.25;98432.92;1728501;82;21334;-80
2021/08/10 06:21:47;;;;;;;7.97;5.58;;;;;;;19.77;80.79;98424.84;1728149;82;21529;-80
2021/08/10 06:24:13;;;;;;;6.42;4.05;;;;;;;19.99;80.28;98412.75;1728237;82;21002;-74
2021/08/10 06:26:39;;;;;;;5.47;4.28;;;;;;;20.19;79.76;98406.50;1728277;82;21030;-81
2021/08/10 06:29:05;;;;;;;7.80;4.40;;;;;;;20.21;79.04;98406.97;1728354;82;21548;-80
2021/08/10 06:31:31;;;;;;;11.20;4.62;;;;;;;20.36;78.77;98407.53;1728360;82;21159;-74
2021/08/10 06:33:57;;;;;;;7.85;4.45;;;;;;;20.51;78.34;98413.86;1729910;82;20903;-74
2021/08/10 06:36:23;;;;;;;5.78;3.40;;;;;;;20.68;77.86;98421.14;1741517;82;21520;-80
2021/08/10 06:38:49;;;;;;;5.80;3.62;;;;;;;20.80;77.54;98413.77;1741130;82;20843;-80
2021/08/10 06:41:15;;;;;;;6.85;4.45;;;;;;;21.05;76.33;98411.92;1741647;82;20933;-74
2021/08/10 06:43:41;;;;;;;5.08;3.83;;;;;;;21.15;76.79;98403.80;1740176;82;21153;-74
2021/08/10 06:46:06;;;;;;;4.25;3.17;;;;;;;21.36;75.65;98403.21;1736243;81;20827;-75
2021/08/10 06:48:32;;;;;;;5.92;3.65;;;;;;;21.46;75.69;98406.67;1736255;82;21599;-74
2021/08/10 06:51:01;;;;;;;6.58;3.92;;;;;;;21.53;74.14;98406.89;1736230;81;20874;-74
2021/08/10 06:53:26;;;;;;;7.50;4.62;;;;;;;21.65;74.49;98405.55;1736389;82;20962;-74
2021/08/10 06:55:52;;;;;;;10.50;3.98;;;;;;;21.95;73.70;98399.22;1736325;82;21317;-81
2021/08/10 06:58:18;;;;;;;8.58;3.80;;;;;;;22.29;73.00;98397.16;1736172;82;21567;-74
2021/08/10 07:00:44;;;;;;;4.33;3.33;;;;;;;22.58;71.90;98396.07;1736081;81;21004;-81
2021/08/10 07:03:10;;;;;;;7.78;3.45;;;;;;;22.72;71.39;98394.51;1736290;82;20942;-74
2021/08/10 07:05:36;;;;;;;4.78;2.95;;;;;;;22.87;71.40;98394.95;1736289;82;20958;-81
2021/08/10 07:08:02;;;;;;;5.62;3.37;;;;;;;22.92;69.32;98398.86;1736227;82;22025;-74
2021/08/10 07:10:28;;;;;;;4.22;3.10;;;;;;;23.17;67.87;98399.55;1736257;82;21340;-81
2021/08/10 07:12:55;;;;;;;7.40;3.42;;;;;;;23.04;67.81;98402.36;1736030;82;20958;-74
2021/08/10 07:15:21;;;;;;;5.85;3.45;;;;;;;22.96;66.04;98399.17;1736304;82;21082;-81
2021/08/10 07:17:47;;;;;;;7.30;3.00;;;;;;;23.18;66.18;98399.20;1736296;82;20978;-81
2021/08/10 07:20:13;;;;;;;5.28;3.33;;;;;;;23.61;64.57;98393.44;1736367;81;21072;-79
2021/08/10 07:22:39;;;;;;;9.58;3.17;;;;;;;24.04;63.02;98384.80;1736254;82;20965;-74
2021/08/10 07:25:05;;;;;;;4.80;2.40;;;;;;;24.58;61.77;98388.20;1739954;82;20968;-81
2021/08/10 07:27:31;;;;;;;5.67;2.98;;;;;;;24.82;59.04;98378.22;1736213;82;20975;-74
2021/08/10 07:29:59;;;;;;;7.08;2.33;;;;;;;25.30;58.95;98379.59;1736601;82;20989;-74
2021/08/10 07:32:25;;;;;;;6.47;2.58;;;;;;;25.65;57.53;98379.20;1736327;82;21108;-76
2021/08/10 07:34:51;;;;;;;6.25;2.52;;;;;;;26.26;58.74;98378.20;1738526;82;20937;-82
2021/08/10 07:37:17;;;;;;;3.58;2.27;;;;;;;26.60;56.25;98378.50;1737113;81;20929;-82
2021/08/10 07:39:43;;;;;;;4.67;2.70;;;;;;;26.68;51.47;98379.40;1736333;82;20858;-75
2021/08/10 07:42:09;;;;;;;2.90;2.25;;;;;;;26.95;54.10;98376.75;1736326;82;20902;-75
2021/08/10 07:44:35;;;;;;;3.65;2.70;;;;;;;27.47;52.20;98369.97;1736516;82;21021;-75
2021/08/10 07:47:03;;;;;;;5.55;2.67;;;;;;;27.61;50.83;98368.72;1736067;82;20938;-82
2021/08/10 07:49:28;;;;;;;5.58;2.85;;;;;;;27.66;51.47;98364.76;1736191;82;20947;-82
2021/08/10 07:51:54;;;;;;;3.67;2.60;;;;;;;27.75;49.96;98360.49;1736190;81;20886;-75
2021/08/10 07:54:20;;;;;;;3.58;2.27;;;;;;;28.12;48.99;98356.80;1736219;82;20954;-82
2021/08/10 07:56:46;;;;;;;3.92;2.47;;;;;;;28.60;50.63;98348.32;1736149;82;21205;-76
2021/08/10 07:59:12;;;;;;;2.52;2.33;;;;;;;29.02;50.44;98347.70;1736229;82;20906;-83
2021/08/10 08:01:38;;;;;;;6.42;2.35;;;;;;;29.29;48.49;98345.37;1736223;82;20851;-76
2021/08/10 08:04:04;;;;;;;5.70;2.62;;;;;;;29.17;46.00;98342.97;1736205;82;21417;-82
2021/08/10 08:06:30;;;;;;;4.40;3.10;;;;;;;29.14;46.24;98336.77;1736206;82;20926;-76
2021/08/10 08:08:56;;;;;;;5.62;2.42;;;;;;;29.67;45.96;98335.47;1736205;82;21194;-76
2021/08/10 08:11:22;;;;;;;4.35;2.50;;;;;;;30.16;46.59;98338.02;1736350;82;20870;-76
2021/08/10 08:13:47;;;;;;;4.17;2.98;;;;;;;30.55;46.25;98328.73;1736248;82;20875;-77
2021/08/10 08:16:13;;;;;;;4.42;2.02;;;;;;;30.59;46.23;98335.09;1736292;82;20839;-83
2021/08/10 08:18:41;;;;;;;2.95;2.25;;;;;;;30.87;43.50;98330.03;1736222;81;20890;-76
2021/08/10 08:21:06;;;;;;;5.97;3.10;;;;;;;31.31;43.66;98335.59;1736479;82;21831;-83
2021/08/10 08:23:32;;;;;;;5.42;2.25;;;;;;;31.60;43.22;98329.95;1736089;82;20910;-82
2021/08/10 08:25:59;;;;;;;6.87;2.65;;;;;;;31.57;41.61;98325.19;1736268;82;20914;-76
2021/08/10 08:28:25;;;;;;;3.75;2.45;;;;;;;31.71;39.27;98328.48;1736041;82;20951;-82
2021/08/10 08:30:51;;;;;;;2.67;2.27;;;;;;;31.77;40.20;98320.45;1736508;81;20851;-76
2021/08/10 08:33:16;;;;;;;3.75;2.22;;;;;;;32.76;41.22;98315.19;1736170;82;21356;-82
2021/08/10 08:35:42;;;;;;;5.00;2.15;;;;;;;33.39;40.82;98316.92;1739336;82;20835;-76
2021/08/10 08:38:09;;;;;;;3.65;2.05;;;;;;;33.86;38.50;98316.96;1739299;82;20890;-83
2021/08/10 08:40:44;;;;;;;2.87;2.25;;;;;;;33.62;38.91;98311.95;1715399;82;20953;-82
2021/08/10 08:43:11;;;;;;;3.35;2.20;;;;;;;33.44;37.17;98311.45;1736371;82;20993;-82
2021/08/10 08:45:41;;;;;;;6.33;2.70;;;;;;;33.92;37.41;98310.25;1736342;82;21947;-83
2021/08/10 08:48:07;;;;;;;4.15;2.40;;;;;;;34.76;36.26;98309.03;1729969;82;21419;-83
2021/08/10 08:50:33;;;;;;;4.65;2.40;;;;;;;35.29;33.53;98302.23;1705417;84;20854;-77
2021/08/10 08:53:00;;;;;;;6.72;2.90;;;;;;;35.09;33.99;98295.86;1684682;84;21065;-76
2021/08/10 08:55:26;;;;;;;3.92;2.55;;;;;;;35.13;35.58;98297.99;1705611;84;21066;-76
2021/08/10 08:57:52;;;;;;;6.17;2.37;;;;;;;34.73;34.57;98297.25;1704830;84;21255;-77
2021/08/10 09:00:18;;;;;;;6.53;2.27;;;;;;;35.22;33.68;98295.36;1705308;83;20929;-77
2021/08/10 09:02:44;;;;;;;4.62;2.72;;;;;;;35.16;31.67;98293.50;1704970;83;20990;-77
2021/08/10 09:05:12;;;;;;;6.03;1.92;;;;;;;35.73;33.51;98297.77;1705344;83;21013;-77
2021/08/10 09:07:38;;;;;;;;;;;;;;;35.71;31.94;98296.78;1709171;83;20927;-77
2021/08/10 09:10:18;;;;;;;3.12;2.08;;;;;;;36.09;31.91;98289.98;1707045;84;21044;-76
2021/08/10 09:12:54;;;;;;;3.27;2.37;;;;;;;37.35;29.32;98285.72;1706612;83;21387;-81
2021/08/10 09:15:38;;;;;;;2.80;2.47;;;;;;;36.23;31.41;98295.03;1707049;83;20962;-77
2021/08/10 09:18:17;;;;;;;5.50;2.45;;;;;;;36.86;30.48;98286.02;1706483;84;21009;-81
2021/08/10 09:21:10;;;;;;;2.95;2.00;;;;;;;37.19;28.72;98287.39;1707113;84;20950;-77
2021/08/10 09:23:42;;;;;;;3.20;1.95;;;;;;;36.76;29.74;98284.28;1706741;84;21133;-77
2021/08/10 09:26:09;;;;;;;3.12;1.80;;;;;;;37.98;28.87;98281.35;1686578;84;21058;-76
2021/08/10 09:28:35;;;;;;;3.40;1.52;;;;;;;38.13;27.39;98280.23;1706693;84;21017;-83
2021/08/10 09:31:40;;;;;;;4.05;1.52;;;;;;;38.18;27.11;98286.70;1707131;83;20946;-77
2021/08/10 09:34:07;;;;;;;3.58;1.80;;;;;;;37.71;26.39;98279.66;1706116;83;20974;-76
2021/08/10 09:36:34;;;;;;;2.42;1.57;;;;;;;38.01;27.43;98280.42;1710561;83;21792;-76
2021/08/10 09:39:00;;;;;;;3.93;1.70;;;;;;;38.89;26.36;98287.55;1711816;83;21064;-83
2021/08/10 09:41:26;;;;;;;4.08;2.50;;;;;;;38.97;26.05;98281.77;1712233;83;20941;-83
2021/08/10 09:44:19;;;;;;;4.03;3.25;;;;;;;39.71;25.78;98270.86;1711979;83;21446;-82
2021/08/10 09:46:50;;;;;;;2.62;2.00;;;;;;;40.12;25.06;98271.55;1712241;83;20950;-77
2021/08/10 09:49:17;;;;;;;3.62;2.37;;;;;;;40.90;23.68;98267.84;1708865;83;21139;-83
2021/08/10 09:51:47;;;;;;;2.12;1.87;;;;;;;40.78;23.99;98269.59;1706914;82;20966;-76
2021/08/10 09:54:14;;;;;;;3.90;1.80;;;;;;;40.81;22.74;98270.05;1706487;83;21018;-77
2021/08/10 09:56:56;;;;;;;3.35;1.62;;;;;;;40.43;23.44;98272.80;1707070;83;21001;-77
2021/08/10 09:59:23;;;;;;;2.62;1.92;;;;;;;40.91;23.09;98268.77;1706298;83;21335;-76
2021/08/10 10:01:53;;;;;;;2.72;1.90;;;;;;;40.92;23.16;98266.72;1706987;84;21014;-82
2021/08/10 10:04:28;;;;;;;4.90;2.90;;;;;;;41.59;22.99;98260.56;1706839;83;20910;-77
2021/08/10 10:06:57;;;;;;;5.62;2.45;;;;;;;41.60;22.57;98261.34;1706941;83;21394;-83
2021/08/10 10:09:26;;;;;;;7.40;2.90;;;;;;;41.67;22.50;98257.50;1706706;84;21395;-77
2021/08/10 10:11:54;;;;;;;9.03;2.60;;;;;;;42.00;21.96;98258.72;1706876;82;21026;-83
2021/08/10 10:14:22;;;;;;;4.22;2.20;;;;;;;41.15;22.15;98261.73;1706787;83;22000;-83
2021/08/10 10:16:50;;;;;;;2.55;1.85;;;;;;;40.64;22.40;98249.74;1706885;82;21009;-82
2021/08/10 10:19:19;;;;;;;4.08;1.70;;;;;;;40.62;22.27;98257.95;1686553;84;20939;-76
2021/08/10 10:22:03;;;;;;;1.67;1.30;;;;;;;41.06;21.67;98251.83;1706804;82;20942;-82
2021/08/10 10:24:27;;;;;;;2.75;1.60;;;;;;;38.99;22.24;98257.23;1706618;83;20950;-83
2021/08/10 10:27:02;;;;;;;2.72;1.60;;;;;;;39.55;22.95;98247.02;1707386;84;26231;-77
2021/08/10 10:29:28;;;;;;;3.02;1.98;;;;;;;39.64;22.11;98254.15;1706625;84;20947;-77
2021/08/10 10:31:54;;;;;;;3.00;1.90;;;;;;;39.45;22.00;98247.63;1707184;82;20974;-82
2021/08/10 10:34:20;;;;;;;4.53;1.60;;;;;;;40.21;22.19;98250.27;1707201;84;26627;-82
2021/08/10 10:36:47;;;;;;;2.83;1.75;;;;;;;40.04;22.13;98243.34;1711084;82;21005;-82
2021/08/10 10:39:16;;;;;;;2.33;1.35;;;;;;;41.08;21.61;98239.34;1712383;83;27299;-77
2021/08/10 10:41:42;;;;;;;2.60;1.50;;;;;;;41.32;20.39;98241.63;1708335;83;20971;-82
2021/08/10 10:44:09;;;;;;;3.57;1.63;;;;;;;42.24;21.08;98227.54;1707250;83;20901;-77
2021/08/10 10:46:37;;;;;;;2.77;1.70;;;;;;;42.48;20.06;98233.16;1707095;83;21060;-77
2021/08/10 10:49:05;;;;;;;2.05;1.40;;;;;;;42.95;19.71;98227.11;1706872;83;21447;-77
2021/08/10 10:51:34;;;;;;;3.83;1.82;;;;;;;39.59;20.84;98231.33;1706961;83;21117;-77
2021/08/10 10:54:24;;;;;;;2.08;1.60;;;;;;;38.93;22.02;98228.72;1706749;84;21041;-82
2021/08/10 10:56:51;;;;;;;3.67;1.72;;;;;;;39.14;21.73;98222.23;1706999;83;20989;-81
2021/08/10 10:59:37;;;;;;;5.03;1.75;;;;;;;40.85;21.00;98226.63;1706797;84;21352;-76
2021/08/10 11:02:24;;;;;;;1.87;1.30;;;;;;;41.43;19.71;98219.12;1707188;82;25407;-81
2021/08/10 11:05:16;;;;;;;3.08;1.90;;;;;;;40.03;20.96;98221.28;1707023;83;21142;-76
2021/08/10 11:07:43;;;;;;;3.37;1.87;;;;;;;38.70;22.20;98216.49;1706471;83;20926;-82
2021/08/10 11:10:17;;;;;;;2.85;1.50;;;;;;;37.98;23.02;98212.07;1707132;83;21005;-77
2021/08/10 11:12:45;;;;;;;2.50;1.70;;;;;;;37.41;23.72;98210.42;1706882;84;20938;-81
2021/08/10 11:15:17;;;;;;;4.42;2.20;;;;;;;35.37;26.02;98214.73;1707045;83;21422;-76
2021/08/10 11:18:12;;;;;;;2.67;2.00;;;;;;;33.59;27.75;98200.45;1706834;84;21387;-77
2021/08/10 11:20:49;;;;;;;3.35;2.02;;;;;;;32.64;29.49;98199.94;1707152;82;20942;-82
2021/08/10 11:23:24;;;;;;;3.10;1.90;;;;;;;31.47;31.30;98203.50;1706824;84;20923;-81
2021/08/10 11:26:00;;;;;;;7.35;3.33;;;;;;;31.88;31.19;98206.30;1707045;84;21463;-82
2021/08/10 11:28:35;;;;;;;3.58;2.27;;;;;;;32.61;31.37;98199.39;1704616;84;20974;-82
2021/08/10 11:31:07;;;;;;;2.40;1.92;;;;;;;32.99;31.71;98203.66;1707222;83;20980;-82
2021/08/10 11:33:38;;;;;;;3.65;1.60;;;;;;;33.06;32.34;98204.92;1706663;84;21009;-76
2021/08/10 11:36:16;;;;;;;3.72;2.00;;;;;;;32.34;33.06;98199.36;1705017;83;20955;-77